createdAt,value
2023-03-01T00:00:09.234Z,67.30
2023-03-01T00:02:36.157Z,67.40
2023-03-01T00:05:03.108Z,67.50
2023-03-01T00:07:29.688Z,67.70
2023-03-01T00:09:56.314Z,67.80
2023-03-01T00:12:22.988Z,67.90
2023-03-01T00:14:49.677Z,68.00
2023-03-01T00:17:16.276Z,68.10
2023-03-01T00:19:42.940Z,68.10
2023-03-01T00:22:09.541Z,68.20
2023-03-01T00:24:36.167Z,68.30
2023-03-01T00:27:02.769Z,68.40
2023-03-01T00:29:29.364Z,68.50
2023-03-01T00:31:55.975Z,68.60
2023-03-01T00:34:22.545Z,68.70
2023-03-01T00:36:49.238Z,68.70
2023-03-01T00:39:16.303Z,68.70
2023-03-01T00:41:43.677Z,68.70
2023-03-01T00:44:11.118Z,68.70
2023-03-01T00:46:38.284Z,68.80
2023-03-01T00:49:05.563Z,68.70
2023-03-01T00:51:33.065Z,68.80
2023-03-01T00:54:02.860Z,68.80
2023-03-01T00:56:31.021Z,68.90
2023-03-01T00:58:58.112Z,68.90
2023-03-01T01:01:31.658Z,68.90
2023-03-01T01:04:02.181Z,68.90
2023-03-01T01:06:45.196Z,69.00
2023-03-01T01:09:18.005Z,69.20
2023-03-01T01:11:50.654Z,69.20
2023-03-01T01:14:18.789Z,69.20
2023-03-01T01:16:45.483Z,69.30
2023-03-01T01:19:12.763Z,69.30
2023-03-01T01:21:39.425Z,69.30
2023-03-01T01:24:06.572Z,69.40
2023-03-01T01:26:34.777Z,69.40
2023-03-01T01:29:04.369Z,69.40
2023-03-01T01:31:32.481Z,69.50
2023-03-01T01:34:01.798Z,69.50
2023-03-01T01:36:29.285Z,69.60
2023-03-01T01:38:56.448Z,69.50
2023-03-01T01:41:24.405Z,69.60
2023-03-01T01:44:12.940Z,69.60
2023-03-01T01:46:53.589Z,69.70
2023-03-01T01:49:31.879Z,69.70
2023-03-01T01:52:26.420Z,69.70
2023-03-01T01:54:58.666Z,69.80
2023-03-01T01:57:34.851Z,69.80
2023-03-01T02:00:07.002Z,69.80
2023-03-01T02:02:33.769Z,69.80
2023-03-01T02:05:11.388Z,69.90
2023-03-01T02:07:40.629Z,69.90
2023-03-01T02:10:07.777Z,70.00
2023-03-01T02:12:36.671Z,70.10
2023-03-01T02:15:03.597Z,70.30
2023-03-01T02:17:30.711Z,70.40
2023-03-01T02:20:15.828Z,70.40
2023-03-01T02:22:45.678Z,70.50
2023-03-01T02:25:47.700Z,70.50
2023-03-01T02:28:17.185Z,70.60
2023-03-01T02:31:06.676Z,70.60
2023-03-01T02:33:37.073Z,70.60
2023-03-01T02:36:08.957Z,70.60
2023-03-01T02:38:35.763Z,70.70
2023-03-01T02:41:05.141Z,70.80
2023-03-01T02:43:33.699Z,70.80
2023-03-01T02:46:05.304Z,70.90
2023-03-01T02:48:59.723Z,70.90
2023-03-01T02:51:43.689Z,71.00
2023-03-01T02:54:27.530Z,71.10
2023-03-01T02:56:54.527Z,71.20
2023-03-01T02:59:25.562Z,71.20
2023-03-01T03:01:52.274Z,71.30
2023-03-01T03:04:22.291Z,71.40
2023-03-01T03:06:51.243Z,71.50
2023-03-01T03:09:18.772Z,71.60
2023-03-01T03:11:46.169Z,71.80
2023-03-01T03:14:15.240Z,71.80
2023-03-01T03:16:51.196Z,71.90
2023-03-01T03:19:19.709Z,72.00
2023-03-01T03:21:46.881Z,72.00
2023-03-01T03:24:13.454Z,72.10
2023-03-01T03:26:40.096Z,72.20
2023-03-01T03:29:06.739Z,72.30
2023-03-01T03:31:33.418Z,72.40
2023-03-01T03:34:00.115Z,72.40
2023-03-01T03:36:26.842Z,72.50
2023-03-01T03:38:53.589Z,72.50
2023-03-01T03:41:20.313Z,72.60
2023-03-01T03:43:47.004Z,72.70
2023-03-01T03:46:13.837Z,72.70
2023-03-01T03:48:45.186Z,72.70
2023-03-01T03:51:16.791Z,72.70
2023-03-01T03:53:44.149Z,72.70
2023-03-01T03:56:11.123Z,72.80
2023-03-01T03:58:38.224Z,72.80
2023-03-01T04:01:05.312Z,72.80
2023-03-01T04:03:33.178Z,72.80
2023-03-01T04:06:01.686Z,72.80
2023-03-01T04:08:29.039Z,72.80
2023-03-01T04:11:22.514Z,72.80
2023-03-01T04:13:49.763Z,72.80
2023-03-01T04:16:17.219Z,72.70
2023-03-01T04:18:44.247Z,72.70
2023-03-01T04:21:12.156Z,72.70
2023-03-01T04:23:39.992Z,72.70
2023-03-01T04:26:06.579Z,72.70
2023-03-01T04:28:46.962Z,72.80
2023-03-01T04:31:19.318Z,72.80
2023-03-01T04:33:54.653Z,72.80
2023-03-01T04:36:30.786Z,72.90
2023-03-01T04:38:58.216Z,72.90
2023-03-01T04:41:26.692Z,72.90
2023-03-01T04:43:53.779Z,72.90
2023-03-01T04:46:21.850Z,72.90
2023-03-01T04:48:48.966Z,73.00
2023-03-01T04:51:16.568Z,73.00
2023-03-01T04:53:44.099Z,73.00
2023-03-01T04:56:11.371Z,73.10
2023-03-01T04:58:38.392Z,73.10
2023-03-01T05:01:17.690Z,73.10
2023-03-01T05:03:49.805Z,73.20
2023-03-01T05:06:16.860Z,73.30
2023-03-01T05:08:44.564Z,73.20
2023-03-01T05:11:12.298Z,73.30
2023-03-01T05:13:40.057Z,73.20
2023-03-01T05:16:12.025Z,73.10
2023-03-01T05:18:39.553Z,73.10
2023-03-01T05:21:11.816Z,73.10
2023-03-01T05:23:39.069Z,73.10
2023-03-01T05:26:09.354Z,73.10
2023-03-01T05:28:38.788Z,73.10
2023-03-01T05:31:10.584Z,73.00
2023-03-01T05:33:41.395Z,73.00
2023-03-01T05:36:10.554Z,73.00
2023-03-01T05:38:37.488Z,72.90
2023-03-01T05:41:04.189Z,72.90
2023-03-01T05:43:36.381Z,73.00
2023-03-01T05:46:03.105Z,72.90
2023-03-01T05:48:30.300Z,72.90
2023-03-01T05:51:01.200Z,72.80
2023-03-01T05:53:27.828Z,72.90
2023-03-01T05:55:54.494Z,72.80
2023-03-01T05:58:21.245Z,72.80
2023-03-01T06:00:49.690Z,72.70
2023-03-01T06:03:18.081Z,72.70
2023-03-01T06:05:45.332Z,72.70
2023-03-01T06:08:12.943Z,72.70
2023-03-01T06:10:39.873Z,72.70
2023-03-01T06:13:06.539Z,72.70
2023-03-01T06:15:33.362Z,72.60
2023-03-01T06:18:00.454Z,72.60
2023-03-01T06:20:29.212Z,72.50
2023-03-01T06:22:55.981Z,72.50
2023-03-01T06:25:24.617Z,72.50
2023-03-01T06:27:53.110Z,72.50
2023-03-01T06:30:21.475Z,72.50
2023-03-01T06:32:48.299Z,72.50
2023-03-01T06:35:18.486Z,72.60
2023-03-01T06:37:45.921Z,72.60
2023-03-01T06:40:14.595Z,72.60
2023-03-01T06:42:43.476Z,72.60
2023-03-01T06:45:10.803Z,72.60
2023-03-01T06:47:37.465Z,72.50
2023-03-01T06:50:04.737Z,72.60
2023-03-01T06:52:31.423Z,72.60
2023-03-01T06:54:58.106Z,72.60
2023-03-01T06:57:24.917Z,72.60
2023-03-01T06:59:51.620Z,72.60
2023-03-01T07:02:18.685Z,72.70
2023-03-01T07:04:45.312Z,72.60
2023-03-01T07:07:12.144Z,72.60
2023-03-01T07:09:38.757Z,72.60
2023-03-01T07:12:05.677Z,72.80
2023-03-01T07:14:32.531Z,73.20
2023-03-01T07:16:59.179Z,73.00
2023-03-01T07:19:25.910Z,72.50
2023-03-01T07:21:52.581Z,72.30
2023-03-01T07:24:19.188Z,72.00
2023-03-01T07:26:50.146Z,72.00
2023-03-01T07:29:17.192Z,72.20
2023-03-01T07:31:43.840Z,72.70
2023-03-01T07:34:11.643Z,72.40
2023-03-01T07:36:38.798Z,72.20
2023-03-01T07:39:05.412Z,72.20
2023-03-01T07:41:32.039Z,72.10
2023-03-01T07:43:58.643Z,72.50
2023-03-01T07:46:25.270Z,73.10
2023-03-01T07:48:51.916Z,72.70
2023-03-01T07:51:21.048Z,72.50
2023-03-01T07:53:49.092Z,72.10
2023-03-01T07:56:18.622Z,72.20
2023-03-01T07:58:46.006Z,72.10
2023-03-01T08:01:15.220Z,72.20
2023-03-01T08:03:43.233Z,72.60
2023-03-01T08:06:11.273Z,72.70
2023-03-01T08:08:38.314Z,73.30
2023-03-01T08:11:07.578Z,72.70
2023-03-01T08:13:34.566Z,72.20
2023-03-01T08:16:06.918Z,72.90
2023-03-01T08:18:33.683Z,73.20
2023-03-01T08:21:12.228Z,72.60
2023-03-01T08:23:39.717Z,71.30
2023-03-01T08:26:11.593Z,70.30
2023-03-01T08:28:38.745Z,70.00
2023-03-01T08:31:22.648Z,70.40
2023-03-01T08:33:57.212Z,70.60
2023-03-01T08:36:26.366Z,70.20
2023-03-01T08:38:53.428Z,69.60
2023-03-01T08:41:20.420Z,68.50
2023-03-01T08:43:47.181Z,68.30
2023-03-01T08:46:14.642Z,67.80
2023-03-01T08:48:43.973Z,66.90
2023-03-01T08:51:18.054Z,65.50
2023-03-01T08:53:45.306Z,64.30
2023-03-01T08:56:12.414Z,62.70
2023-03-01T08:58:40.705Z,61.10
2023-03-01T09:01:11.854Z,58.80
2023-03-01T09:03:38.682Z,56.90
2023-03-01T09:06:08.367Z,55.40
2023-03-01T09:08:40.636Z,55.40
2023-03-01T09:11:08.921Z,55.70
2023-03-01T09:13:36.003Z,52.90
2023-03-01T09:16:04.468Z,51.30
2023-03-01T09:18:31.550Z,50.60
2023-03-01T09:21:08.122Z,49.70
2023-03-01T09:23:37.495Z,46.40
2023-03-01T09:26:04.604Z,44.90
2023-03-01T09:28:31.563Z,42.90
2023-03-01T09:31:02.444Z,41.50
2023-03-01T09:33:30.928Z,40.30
2023-03-01T09:36:02.321Z,39.10
2023-03-01T09:38:29.499Z,38.30
2023-03-01T09:40:56.617Z,37.30
2023-03-01T09:43:26.854Z,36.70
2023-03-01T09:45:56.954Z,35.60
2023-03-01T09:48:27.621Z,35.40
2023-03-01T09:50:54.397Z,34.80
2023-03-01T09:53:32.596Z,33.70
2023-03-01T09:56:23.314Z,32.10
2023-03-01T09:59:14.642Z,31.50
2023-03-01T10:02:00.038Z,30.00
2023-03-01T10:04:37.512Z,30.10
2023-03-01T10:07:36.472Z,29.70
2023-03-01T10:10:08.237Z,28.70
2023-03-01T10:12:41.396Z,28.50
2023-03-01T10:15:20.511Z,28.20
2023-03-01T10:18:03.994Z,27.50
2023-03-01T10:20:44.205Z,27.50
2023-03-01T10:23:11.159Z,27.60
2023-03-01T10:25:58.886Z,27.50
2023-03-01T10:29:03.384Z,27.50
2023-03-01T10:31:50.352Z,28.30
2023-03-01T10:34:21.947Z,28.00
2023-03-01T10:36:54.189Z,29.40
2023-03-01T10:39:23.519Z,29.00
2023-03-01T10:41:57.697Z,29.70
2023-03-01T10:44:47.218Z,30.00
2023-03-01T10:47:21.363Z,31.00
2023-03-01T10:49:58.356Z,31.80
2023-03-01T10:52:28.594Z,31.50
2023-03-01T10:55:01.889Z,31.70
2023-03-01T10:57:40.003Z,31.30
2023-03-01T11:00:24.268Z,31.40
2023-03-01T11:03:02.481Z,31.00
2023-03-01T11:05:31.308Z,30.40
2023-03-01T11:07:59.889Z,30.90
2023-03-01T11:10:33.742Z,31.30
2023-03-01T11:13:09.706Z,32.10
2023-03-01T11:15:36.716Z,32.50
2023-03-01T11:18:13.772Z,33.30
2023-03-01T11:20:41.745Z,34.00
2023-03-01T11:23:14.214Z,34.40
2023-03-01T11:25:44.351Z,33.80
2023-03-01T11:28:17.487Z,33.20
2023-03-01T11:31:08.290Z,33.20
2023-03-01T11:34:00.335Z,33.20
2023-03-01T11:36:36.814Z,34.40
2023-03-01T11:39:24.069Z,35.10
2023-03-01T11:42:06.346Z,35.50
2023-03-01T11:44:42.696Z,35.90
2023-03-01T11:47:27.667Z,36.20
2023-03-01T11:50:25.526Z,36.30
2023-03-01T11:53:18.421Z,35.70
2023-03-01T11:55:53.068Z,35.60
2023-03-01T11:58:46.122Z,36.00
2023-03-01T12:01:18.512Z,36.10
2023-03-01T12:04:23.353Z,36.40
2023-03-01T12:07:10.320Z,36.00
2023-03-01T12:09:47.818Z,36.80
2023-03-01T12:12:38.629Z,36.90
2023-03-01T12:15:23.294Z,36.30
2023-03-01T12:18:15.511Z,36.40
2023-03-01T12:20:55.639Z,36.40
2023-03-01T12:24:02.612Z,36.10
2023-03-01T12:27:07.464Z,36.10
2023-03-01T12:30:02.975Z,35.50
2023-03-01T12:32:41.106Z,35.20
2023-03-01T12:35:23.285Z,35.00
2023-03-01T12:38:07.394Z,36.00
2023-03-01T12:40:39.650Z,35.40
2023-03-01T12:43:26.088Z,35.40
2023-03-01T12:46:03.626Z,34.90
2023-03-01T12:49:05.703Z,34.60
2023-03-01T12:51:35.738Z,34.30
2023-03-01T12:54:12.356Z,34.50
2023-03-01T12:56:39.860Z,34.60
2023-03-01T12:59:21.357Z,34.30
2023-03-01T13:01:50.810Z,34.30
2023-03-01T13:04:43.537Z,33.40
2023-03-01T13:07:56.691Z,33.10
2023-03-01T13:10:31.789Z,33.60
2023-03-01T13:12:58.689Z,33.80
2023-03-01T13:15:25.258Z,34.30
2023-03-01T13:17:56.005Z,34.00
2023-03-01T13:20:35.341Z,34.40
2023-03-01T13:23:27.593Z,34.80
2023-03-01T13:26:09.316Z,35.00
2023-03-01T13:28:46.979Z,34.60
2023-03-01T13:31:16.415Z,35.10
2023-03-01T13:33:47.468Z,35.10
2023-03-01T13:36:30.304Z,34.90
2023-03-01T13:39:02.020Z,34.10
2023-03-01T13:41:43.600Z,34.00
2023-03-01T13:44:25.309Z,33.40
2023-03-01T13:47:00.505Z,34.00
2023-03-01T13:49:46.946Z,34.40
2023-03-01T13:52:36.724Z,33.70
2023-03-01T13:55:08.007Z,33.70
2023-03-01T13:57:37.402Z,34.90
2023-03-01T14:00:05.740Z,35.30
2023-03-01T14:02:32.894Z,35.60
2023-03-01T14:05:01.060Z,35.40
2023-03-01T14:07:31.963Z,35.20
2023-03-01T14:10:05.368Z,36.00
2023-03-01T14:12:53.389Z,36.10
2023-03-01T14:15:40.791Z,36.30
2023-03-01T14:18:21.325Z,36.30
2023-03-01T14:20:52.230Z,36.60
2023-03-01T14:23:21.762Z,36.80
2023-03-01T14:25:54.304Z,37.00
2023-03-01T14:28:25.541Z,37.10
2023-03-01T14:30:55.435Z,37.20
2023-03-01T14:33:26.882Z,37.50
2023-03-01T14:36:06.101Z,37.70
2023-03-01T14:38:40.020Z,37.60
2023-03-01T14:41:16.892Z,37.50
2023-03-01T14:43:50.224Z,37.50
2023-03-01T14:46:31.740Z,37.70
2023-03-01T14:49:23.704Z,37.30
2023-03-01T14:52:22.176Z,37.60
2023-03-01T14:54:52.576Z,38.00
2023-03-01T14:57:28.104Z,38.10
2023-03-01T14:59:57.994Z,38.50
2023-03-01T15:02:27.322Z,38.30
2023-03-01T15:04:58.127Z,38.10
2023-03-01T15:07:32.379Z,38.40
2023-03-01T15:10:00.295Z,38.70
2023-03-01T15:12:29.680Z,38.50
2023-03-01T15:15:03.742Z,38.60
2023-03-01T15:17:36.804Z,39.00
2023-03-01T15:20:17.663Z,39.20
2023-03-01T15:22:50.319Z,38.90
2023-03-01T15:25:20.078Z,39.20
2023-03-01T15:27:48.193Z,39.60
2023-03-01T15:30:25.466Z,39.50
2023-03-01T15:33:22.399Z,39.80
2023-03-01T15:35:54.525Z,40.00
2023-03-01T15:38:29.375Z,40.20
2023-03-01T15:40:58.842Z,40.30
2023-03-01T15:43:46.553Z,40.60
2023-03-01T15:46:33.455Z,40.70
2023-03-01T15:49:03.760Z,41.00
2023-03-01T15:51:38.311Z,41.40
2023-03-01T15:54:14.509Z,41.40
2023-03-01T15:56:41.100Z,41.40
2023-03-01T15:59:12.725Z,41.60
2023-03-01T16:01:39.307Z,41.70
2023-03-01T16:04:06.020Z,41.70
2023-03-01T16:06:33.369Z,41.90
2023-03-01T16:09:00.214Z,42.00
2023-03-01T16:11:26.931Z,42.00
2023-03-01T16:13:53.789Z,42.10
2023-03-01T16:16:20.509Z,42.40
2023-03-01T16:18:47.822Z,42.40
2023-03-01T16:21:24.620Z,42.80
2023-03-01T16:23:53.425Z,42.90
2023-03-01T16:26:21.476Z,43.10
2023-03-01T16:28:48.685Z,43.40
2023-03-01T16:31:20.043Z,43.50
2023-03-01T16:33:53.507Z,43.50
2023-03-01T16:36:24.264Z,43.70
2023-03-01T16:38:52.308Z,44.00
2023-03-01T16:41:21.378Z,44.00
2023-03-01T16:43:48.810Z,44.30
2023-03-01T16:46:18.488Z,44.10
2023-03-01T16:48:46.120Z,44.40
2023-03-01T16:51:13.356Z,44.50
2023-03-01T16:53:40.351Z,44.60
2023-03-01T16:56:09.990Z,45.00
2023-03-01T16:58:41.456Z,45.20
2023-03-01T17:01:19.674Z,45.60
2023-03-01T17:03:48.189Z,45.50
2023-03-01T17:06:17.878Z,45.60
2023-03-01T17:08:44.635Z,45.80
2023-03-01T17:11:14.278Z,45.90
2023-03-01T17:13:41.676Z,45.90
2023-03-01T17:16:11.594Z,46.20
2023-03-01T17:18:38.753Z,46.30
2023-03-01T17:21:06.561Z,46.30
2023-03-01T17:23:34.276Z,46.40
2023-03-01T17:26:00.908Z,46.50
2023-03-01T17:28:31.691Z,46.60
2023-03-01T17:31:00.596Z,46.90
2023-03-01T17:33:27.406Z,47.10
2023-03-01T17:35:54.243Z,47.30
2023-03-01T17:38:21.085Z,47.20
2023-03-01T17:40:47.958Z,48.30
2023-03-01T17:43:16.701Z,47.70
2023-03-01T17:45:48.402Z,47.90
2023-03-01T17:48:16.813Z,48.20
2023-03-01T17:50:43.948Z,48.30
2023-03-01T17:53:11.713Z,48.50
2023-03-01T17:55:40.415Z,48.60
2023-03-01T17:58:09.103Z,48.70
2023-03-01T18:00:36.580Z,48.80
2023-03-01T18:03:03.716Z,49.00
2023-03-01T18:05:37.976Z,49.20
2023-03-01T18:08:04.850Z,49.40
2023-03-01T18:10:32.196Z,49.40
2023-03-01T18:12:59.562Z,49.50
2023-03-01T18:15:26.168Z,49.80
2023-03-01T18:17:52.845Z,49.80
2023-03-01T18:20:19.534Z,50.00
2023-03-01T18:22:46.401Z,50.10
2023-03-01T18:25:13.456Z,50.30
2023-03-01T18:27:40.112Z,50.40
2023-03-01T18:30:08.765Z,50.50
2023-03-01T18:32:35.435Z,50.70
2023-03-01T18:35:02.374Z,50.90
2023-03-01T18:37:28.956Z,51.00
2023-03-01T18:39:55.653Z,51.20
2023-03-01T18:42:22.537Z,51.30
2023-03-01T18:44:49.409Z,51.50
2023-03-01T18:47:17.187Z,51.60
2023-03-01T18:49:44.349Z,51.80
2023-03-01T18:52:11.147Z,52.10
2023-03-01T18:54:37.827Z,52.30
2023-03-01T18:57:04.860Z,52.50
2023-03-01T18:59:31.666Z,52.70
2023-03-01T19:01:58.366Z,52.80
2023-03-01T19:04:25.064Z,52.80
2023-03-01T19:06:51.712Z,53.00
2023-03-01T19:09:18.474Z,53.10
2023-03-01T19:11:45.134Z,53.50
2023-03-01T19:14:11.811Z,53.80
2023-03-01T19:16:38.488Z,54.10
2023-03-01T19:19:08.331Z,54.10
2023-03-01T19:21:35.354Z,54.30
2023-03-01T19:24:02.613Z,54.30
2023-03-01T19:26:30.505Z,54.40
2023-03-01T19:28:57.425Z,54.50
2023-03-01T19:31:27.110Z,54.60
2023-03-01T19:33:59.446Z,54.80
2023-03-01T19:36:33.254Z,55.10
2023-03-01T19:39:02.243Z,55.20
2023-03-01T19:41:29.460Z,55.40
2023-03-01T19:43:57.264Z,55.60
2023-03-01T19:46:24.460Z,55.70
2023-03-01T19:48:53.550Z,55.70
2023-03-01T19:51:20.231Z,55.80
2023-03-01T19:53:47.573Z,55.90
2023-03-01T19:56:14.178Z,56.00
2023-03-01T19:58:40.885Z,56.00
2023-03-01T20:01:19.260Z,56.00
2023-03-01T20:03:46.972Z,56.10
2023-03-01T20:06:20.269Z,56.30
2023-03-01T20:08:47.364Z,56.50
2023-03-01T20:11:15.562Z,56.60
2023-03-01T20:13:42.376Z,56.70
2023-03-01T20:16:09.676Z,56.80
2023-03-01T20:18:36.626Z,57.00
2023-03-01T20:21:09.204Z,57.30
2023-03-01T20:23:44.857Z,57.30
2023-03-01T20:26:16.460Z,57.40
2023-03-01T20:28:43.914Z,57.40
2023-03-01T20:31:12.173Z,57.80
2023-03-01T20:33:38.997Z,57.80
2023-03-01T20:36:07.173Z,58.10
2023-03-01T20:38:34.716Z,58.30
2023-03-01T20:41:12.806Z,58.40
2023-03-01T20:43:42.001Z,58.50
2023-03-01T20:46:11.553Z,58.70
2023-03-01T20:48:38.238Z,58.70
2023-03-01T20:51:06.455Z,58.90
2023-03-01T20:53:33.417Z,59.00
2023-03-01T20:56:04.810Z,59.00
2023-03-01T20:58:32.869Z,59.20
2023-03-01T21:01:00.222Z,59.40
2023-03-01T21:03:26.937Z,59.50
2023-03-01T21:05:58.382Z,59.60
2023-03-01T21:08:25.758Z,59.70
2023-03-01T21:10:54.193Z,59.80
2023-03-01T21:13:21.835Z,59.80
2023-03-01T21:15:59.817Z,60.00
2023-03-01T21:18:29.995Z,60.00
2023-03-01T21:21:14.380Z,60.00
2023-03-01T21:23:43.178Z,60.20
2023-03-01T21:26:16.908Z,60.20
2023-03-01T21:28:43.826Z,60.40
2023-03-01T21:31:16.538Z,60.40
2023-03-01T21:33:54.782Z,60.40
2023-03-01T21:36:23.225Z,60.60
2023-03-01T21:38:51.711Z,60.60
2023-03-01T21:41:27.643Z,60.70
2023-03-01T21:44:00.446Z,60.80
2023-03-01T21:46:28.433Z,60.90
2023-03-01T21:48:55.407Z,60.90
2023-03-01T21:51:24.454Z,61.00
2023-03-01T21:53:51.814Z,61.00
2023-03-01T21:56:20.985Z,61.20
2023-03-01T21:58:48.674Z,61.20
2023-03-01T22:01:18.018Z,61.20
2023-03-01T22:03:45.307Z,61.40
2023-03-01T22:06:19.510Z,61.60
2023-03-01T22:08:56.780Z,61.60
2023-03-01T22:11:26.031Z,61.70
2023-03-01T22:13:55.317Z,61.80
2023-03-01T22:16:25.246Z,61.90
2023-03-01T22:18:52.216Z,62.00
2023-03-01T22:21:19.670Z,62.00
2023-03-01T22:23:46.512Z,62.10
2023-03-01T22:26:21.990Z,62.20
2023-03-01T22:28:48.755Z,62.30
2023-03-01T22:31:15.506Z,62.50
2023-03-01T22:33:42.250Z,62.70
2023-03-01T22:36:09.103Z,62.90
2023-03-01T22:38:35.865Z,63.10
2023-03-01T22:41:04.278Z,63.20
2023-03-01T22:43:32.250Z,63.40
2023-03-01T22:45:59.124Z,63.60
2023-03-01T22:48:26.816Z,63.90
2023-03-01T22:50:53.456Z,64.00
2023-03-01T22:53:20.147Z,64.20
2023-03-01T22:55:46.866Z,64.60
2023-03-01T22:58:13.504Z,64.80
2023-03-01T23:00:40.260Z,65.10
2023-03-01T23:03:07.266Z,65.30
2023-03-01T23:05:34.027Z,65.60
2023-03-01T23:08:00.808Z,65.80
2023-03-01T23:10:27.529Z,66.10
2023-03-01T23:12:55.680Z,66.20
2023-03-01T23:15:22.868Z,66.40
2023-03-01T23:17:49.611Z,66.50
2023-03-01T23:20:16.906Z,66.50
2023-03-01T23:22:43.674Z,66.50
2023-03-01T23:25:14.919Z,67.10
2023-03-01T23:27:42.046Z,67.30
2023-03-01T23:30:09.539Z,67.40
2023-03-01T23:32:40.213Z,67.70
2023-03-01T23:35:08.989Z,67.90
2023-03-01T23:37:35.742Z,68.20
2023-03-01T23:40:06.044Z,68.40
2023-03-01T23:42:34.138Z,68.40
2023-03-01T23:45:00.826Z,68.60
2023-03-01T23:47:27.500Z,68.90
2023-03-01T23:49:57.083Z,69.10
2023-03-01T23:52:24.349Z,69.40
2023-03-01T23:54:51.785Z,69.40
2023-03-01T23:57:19.184Z,69.50
2023-03-01T23:59:45.974Z,69.70
